Time,TemperatureF,DewpointF,PressureIn,WindDirection,WindDirectionDegrees,WindSpeedMPH,WindSpeedGustMPH,Humidity,HourlyPrecipIn,Conditions,Clouds,dailyrainin,SoftwareType,DateUTC
2013-08-26 00:02:00,77.7,68.0,30.00,South,187,0.0,0.0,71,0.00,,,0.00,weatherlink.com 1.10,2013-08-26 05:02:00,
2013-08-26 00:17:00,76.9,68.0,30.01,South,183,0.0,0.0,73,0.00,,,0.00,weatherlink.com 1.10,2013-08-26 05:17:00,
2013-08-26 00:32:00,76.2,67.0,30.00,South,183,0.0,0.0,74,0.00,,,0.00,weatherlink.com 1.10,2013-08-26 05:32:00,
2013-08-26 00:47:00,75.7,68.0,30.00,South,183,0.0,0.0,76,0.00,,,0.00,weatherlink.com 1.10,2013-08-26 05:47:00,
2013-08-26 01:02:00,74.8,67.0,30.00,South,183,0.0,0.0,77,0.00,,,0.00,weatherlink.com 1.10,2013-08-26 06:02:00,
2013-08-26 01:17:00,74.1,67.0,30.00,South,183,0.0,0.0,78,0.00,,,0.00,weatherlink.com 1.10,2013-08-26 06:17:00,
2013-08-26 01:32:00,73.4,67.0,30.00,South,184,0.0,0.0,80,0.00,,,0.00,weatherlink.com 1.10,2013-08-26 06:32:00,
2013-08-26 01:47:00,72.7,66.0,29.99,South,184,0.0,0.0,79,0.00,,,0.00,weatherlink.com 1.10,2013-08-26 06:47:00,
2013-08-26 02:02:00,72.0,66.0,29.99,South,184,0.0,0.0,81,0.00,,,0.00,weatherlink.com 1.10,2013-08-26 07:02:00,
2013-08-26 02:18:00,71.4,66.0,29.99,South,184,0.0,0.0,83,0.00,,,0.00,weatherlink.com 1.10,2013-08-26 07:18:00,
2013-08-26 02:33:00,71.3,66.0,29.99,South,183,0.0,0.0,83,0.00,,,0.00,weatherlink.com 1.10,2013-08-26 07:33:00,
2013-08-26 02:48:00,70.8,66.0,29.99,South,183,0.0,0.0,84,0.00,,,0.00,weatherlink.com 1.10,2013-08-26 07:48:00,
2013-08-26 03:03:00,71.7,67.0,29.99,SW,221,0.0,0.0,84,0.00,,,0.00,weatherlink.com 1.10,2013-08-26 08:03:00,
2013-08-26 03:18:00,71.7,67.0,29.99,South,191,0.0,0.0,85,0.00,,,0.00,weatherlink.com 1.10,2013-08-26 08:18:00,
2013-08-26 03:33:00,71.2,67.0,29.99,SSW,192,0.0,0.0,85,0.00,,,0.00,weatherlink.com 1.10,2013-08-26 08:33:00,
2013-08-26 03:48:00,70.3,66.0,29.99,South,191,0.0,0.0,86,0.00,,,0.00,weatherlink.com 1.10,2013-08-26 08:48:00,
2013-08-26 04:03:00,70.0,66.0,29.99,South,191,0.0,1.0,86,0.00,,,0.00,weatherlink.com 1.10,2013-08-26 09:03:00,
2013-08-26 04:18:00,70.0,65.0,29.99,South,191,0.0,0.0,85,0.00,,,0.00,weatherlink.com 1.10,2013-08-26 09:18:00,
2013-08-26 04:33:00,70.0,65.0,30.00,South,191,0.0,0.0,85,0.00,,,0.00,weatherlink.com 1.10,2013-08-26 09:33:00,
2013-08-26 04:48:00,70.5,66.0,30.00,South,191,0.0,0.0,86,0.00,,,0.00,weatherlink.com 1.10,2013-08-26 09:48:00,
2013-08-26 05:03:00,70.9,67.0,29.99,South,191,0.0,0.0,86,0.00,,,0.00,weatherlink.com 1.10,2013-08-26 10:03:00,
2013-08-26 05:18:00,71.2,67.0,29.99,North,354,0.0,0.0,86,0.00,,,0.00,weatherlink.com 1.10,2013-08-26 10:18:00,
2013-08-26 05:33:00,72.3,68.0,29.99,NNW,328,0.0,0.0,85,0.00,,,0.00,weatherlink.com 1.10,2013-08-26 10:33:00,
2013-08-26 05:48:00,72.8,68.0,30.00,NNW,347,0.0,0.0,84,0.00,,,0.00,weatherlink.com 1.10,2013-08-26 10:48:00,
2013-08-26 06:03:00,72.8,68.0,30.00,North,3,0.0,0.0,85,0.00,,,0.00,weatherlink.com 1.10,2013-08-26 11:03:00,
2013-08-26 06:18:00,72.6,68.0,30.00,NE,53,0.0,0.0,86,0.00,,,0.00,weatherlink.com 1.10,2013-08-26 11:18:00,
2013-08-26 06:33:00,72.6,69.0,30.00,North,352,0.0,0.0,87,0.00,,,0.00,weatherlink.com 1.10,2013-08-26 11:33:00,
2013-08-26 06:48:00,71.7,69.0,30.01,NE,51,0.0,0.0,90,0.00,,,0.00,weatherlink.com 1.10,2013-08-26 11:48:00,
2013-08-26 07:03:00,71.4,69.0,30.00,NE,51,0.0,0.0,91,0.00,,,0.00,weatherlink.com 1.10,2013-08-26 12:03:00,
2013-08-26 07:18:00,71.3,69.0,30.00,NE,51,0.0,1.0,92,0.00,,,0.00,weatherlink.com 1.10,2013-08-26 12:18:00,
2013-08-26 07:33:00,71.2,69.0,30.00,North,3,0.0,1.0,92,0.00,,,0.00,weatherlink.com 1.10,2013-08-26 12:33:00,
2013-08-26 07:48:00,71.6,69.0,30.01,North,358,0.0,3.0,92,0.00,,,0.00,weatherlink.com 1.10,2013-08-26 12:48:00,
2013-08-26 08:03:00,72.3,70.0,30.01,NNE,22,0.0,0.0,91,0.00,,,0.00,weatherlink.com 1.10,2013-08-26 13:03:00,
2013-08-26 08:18:00,73.6,70.0,30.01,North,350,0.0,0.0,89,0.00,,,0.00,weatherlink.com 1.10,2013-08-26 13:18:00,
2013-08-26 08:33:00,74.3,70.0,30.02,NNE,18,0.0,0.0,87,0.00,,,0.00,weatherlink.com 1.10,2013-08-26 13:33:00,
2013-08-26 08:48:00,74.8,70.0,30.02,NE,37,0.0,0.0,85,0.00,,,0.00,weatherlink.com 1.10,2013-08-26 13:48:00,
2013-08-26 09:03:00,75.1,70.0,30.02,North,351,0.0,0.0,85,0.00,,,0.00,weatherlink.com 1.10,2013-08-26 14:03:00,
2013-08-26 09:18:00,75.3,71.0,30.03,NE,54,0.0,0.0,85,0.00,,,0.00,weatherlink.com 1.10,2013-08-26 14:18:00,
2013-08-26 09:33:00,74.5,71.0,30.03,NNW,341,0.0,0.0,87,0.00,,,0.00,weatherlink.com 1.10,2013-08-26 14:33:00,
2013-08-26 09:48:00,74.6,71.0,30.04,NE,35,0.0,0.0,87,0.00,,,0.00,weatherlink.com 1.10,2013-08-26 14:48:00,
2013-08-26 10:03:00,75.8,71.0,30.03,SW,229,0.0,0.0,85,0.00,,,0.00,weatherlink.com 1.10,2013-08-26 15:03:00,
2013-08-26 10:18:00,76.6,71.0,30.04,ENE,61,0.0,0.0,82,0.00,,,0.00,weatherlink.com 1.10,2013-08-26 15:18:00,
2013-08-26 10:33:00,74.9,71.0,30.04,NNE,27,0.0,0.0,87,0.00,,,0.00,weatherlink.com 1.10,2013-08-26 15:33:00,
2013-08-26 10:48:00,73.9,71.0,30.04,NE,37,0.0,0.0,89,0.00,,,0.00,weatherlink.com 1.10,2013-08-26 15:48:00,
2013-08-26 11:18:00,74.2,71.0,30.05,ESE,119,0.0,0.0,89,0.00,,,0.00,weatherlink.com 1.10,2013-08-26 16:18:00,
2013-08-26 11:33:00,75.4,71.0,30.05,ENE,75,0.0,0.0,86,0.00,,,0.00,weatherlink.com 1.10,2013-08-26 16:33:00,
2013-08-26 11:48:00,77.9,71.0,30.04,NNE,28,0.0,0.0,79,0.00,,,0.00,weatherlink.com 1.10,2013-08-26 16:48:00,
2013-08-26 12:03:00,79.1,70.0,30.04,NE,40,0.0,0.0,74,0.00,,,0.00,weatherlink.com 1.10,2013-08-26 17:03:00,
2013-08-26 12:18:00,78.7,70.0,30.04,ESE,117,0.0,0.0,75,0.00,,,0.00,weatherlink.com 1.10,2013-08-26 17:18:00,
2013-08-26 12:33:00,80.2,70.0,30.03,NE,56,0.0,0.0,71,0.00,,,0.00,weatherlink.com 1.10,2013-08-26 17:33:00,
2013-08-26 12:48:00,81.8,69.0,30.02,ENE,61,0.0,0.0,65,0.00,,,0.00,weatherlink.com 1.10,2013-08-26 17:48:00,
2013-08-26 13:03:00,80.4,68.0,30.02,NNE,24,0.0,0.0,67,0.00,,,0.00,weatherlink.com 1.10,2013-08-26 18:03:00,
2013-08-26 13:18:00,79.7,68.0,30.02,NNE,33,0.0,0.0,67,0.00,,,0.00,weatherlink.com 1.10,2013-08-26 18:18:00,
2013-08-26 13:33:00,81.1,69.0,30.01,ENE,75,0.0,0.0,66,0.00,,,0.00,weatherlink.com 1.10,2013-08-26 18:33:00,
2013-08-26 13:48:00,81.1,69.0,30.01,NE,41,0.0,0.0,66,0.00,,,0.00,weatherlink.com 1.10,2013-08-26 18:48:00,
2013-08-26 14:03:00,82.3,69.0,30.00,ENE,69,0.0,0.0,64,0.00,,,0.00,weatherlink.com 1.10,2013-08-26 19:03:00,
2013-08-26 14:18:00,84.9,69.0,29.99,SSE,157,0.0,0.0,59,0.00,,,0.00,weatherlink.com 1.10,2013-08-26 19:18:00,
2013-08-26 14:33:00,85.0,68.0,29.98,NE,51,0.0,0.0,56,0.00,,,0.00,weatherlink.com 1.10,2013-08-26 19:33:00,
2013-08-26 14:49:00,85.3,68.0,29.97,NE,56,0.0,0.0,56,0.00,,,0.00,weatherlink.com 1.10,2013-08-26 19:49:00,
2013-08-26 15:04:00,85.3,67.0,29.97,NE,46,0.0,0.0,55,0.00,,,0.00,weatherlink.com 1.10,2013-08-26 20:04:00,
2013-08-26 15:19:00,85.4,67.0,29.97,East,95,0.0,0.0,55,0.00,,,0.00,weatherlink.com 1.10,2013-08-26 20:19:00,
2013-08-26 15:34:00,85.0,68.0,29.96,NNE,22,0.0,0.0,56,0.00,,,0.00,weatherlink.com 1.10,2013-08-26 20:34:00,
2013-08-26 15:49:00,85.5,67.0,29.95,ENE,77,0.0,0.0,55,0.00,,,0.00,weatherlink.com 1.10,2013-08-26 20:49:00,
2013-08-26 16:04:00,87.8,68.0,29.95,NNW,339,0.0,0.0,52,0.00,,,0.00,weatherlink.com 1.10,2013-08-26 21:04:00,
2013-08-26 16:19:00,88.0,68.0,29.94,ENE,72,0.0,0.0,51,0.00,,,0.00,weatherlink.com 1.10,2013-08-26 21:19:00,
2013-08-26 16:49:00,86.3,68.0,29.94,South,190,0.0,0.0,54,0.00,,,0.00,weatherlink.com 1.10,2013-08-26 21:49:00,
2013-08-26 17:04:00,86.1,67.0,29.94,ENE,60,0.0,0.0,53,0.00,,,0.00,weatherlink.com 1.10,2013-08-26 22:04:00,
2013-08-26 17:19:00,86.1,67.0,29.94,ENE,75,0.0,0.0,54,0.00,,,0.00,weatherlink.com 1.10,2013-08-26 22:19:00,
2013-08-26 17:34:00,86.0,67.0,29.94,SE,139,0.0,0.0,54,0.00,,,0.00,weatherlink.com 1.10,2013-08-26 22:34:00,
2013-08-26 17:49:00,85.0,68.0,29.94,SSE,155,0.0,0.0,57,0.00,,,0.00,weatherlink.com 1.10,2013-08-26 22:49:00,
2013-08-26 18:04:00,80.8,69.0,29.96,SSW,200,0.0,0.0,68,0.00,,,0.00,weatherlink.com 1.10,2013-08-26 23:04:00,
2013-08-26 18:19:00,79.9,70.0,29.96,South,173,0.0,0.0,72,0.00,,,0.00,weatherlink.com 1.10,2013-08-26 23:19:00,
2013-08-26 18:34:00,79.8,70.0,29.96,South,170,0.0,0.0,72,0.00,,,0.00,weatherlink.com 1.10,2013-08-26 23:34:00,
2013-08-26 18:49:00,79.3,70.0,29.95,SSE,155,0.0,0.0,72,0.00,,,0.00,weatherlink.com 1.10,2013-08-26 23:49:00,
2013-08-26 19:04:00,79.0,70.0,29.95,SW,225,0.0,0.0,73,0.00,,,0.00,weatherlink.com 1.10,2013-08-27 00:04:00,
2013-08-26 19:19:00,78.9,70.0,29.94,SSW,205,0.0,0.0,74,0.00,,,0.00,weatherlink.com 1.10,2013-08-27 00:19:00,
2013-08-26 19:34:00,78.5,70.0,29.95,NE,48,0.0,0.0,74,0.00,,,0.00,weatherlink.com 1.10,2013-08-27 00:34:00,
2013-08-26 19:49:00,78.1,70.0,29.95,SSW,204,0.0,0.0,75,0.00,,,0.00,weatherlink.com 1.10,2013-08-27 00:49:00,
2013-08-26 20:04:00,77.9,69.0,29.95,ENE,68,0.0,0.0,75,0.00,,,0.00,weatherlink.com 1.10,2013-08-27 01:04:00,
2013-08-26 20:19:00,77.4,69.0,29.96,NE,49,0.0,0.0,76,0.00,,,0.00,weatherlink.com 1.10,2013-08-27 01:19:00,
2013-08-26 20:34:00,77.0,69.0,29.96,ESE,107,0.0,0.0,76,0.00,,,0.00,weatherlink.com 1.10,2013-08-27 01:34:00,
2013-08-26 20:49:00,77.0,70.0,29.96,South,175,0.0,0.0,78,0.00,,,0.00,weatherlink.com 1.10,2013-08-27 01:49:00,
2013-08-26 21:04:00,76.5,70.0,29.97,WSW,238,0.0,0.0,81,0.00,,,0.00,weatherlink.com 1.10,2013-08-27 02:04:00,
2013-08-26 21:19:00,75.7,70.0,29.96,ESE,121,0.0,0.0,83,0.00,,,0.00,weatherlink.com 1.10,2013-08-27 02:19:00,
2013-08-26 21:34:00,75.2,70.0,29.96,SW,215,0.0,0.0,84,0.00,,,0.00,weatherlink.com 1.10,2013-08-27 02:34:00,
2013-08-26 21:49:00,74.7,70.0,29.97,NW,307,0.0,0.0,86,0.03,,,0.03,weatherlink.com 1.10,2013-08-27 02:49:00,
2013-08-26 22:04:00,73.2,70.0,29.97,North,354,0.0,0.0,90,0.05,,,0.05,weatherlink.com 1.10,2013-08-27 03:04:00,
2013-08-26 22:19:00,72.2,70.0,29.97,East,94,0.0,0.0,91,0.05,,,0.05,weatherlink.com 1.10,2013-08-27 03:19:00,
2013-08-26 22:34:00,71.7,69.0,29.97,SSW,202,0.0,0.0,92,0.05,,,0.05,weatherlink.com 1.10,2013-08-27 03:34:00,
2013-08-26 22:49:00,71.6,70.0,29.98,SSE,156,0.0,0.0,93,0.02,,,0.05,weatherlink.com 1.10,2013-08-27 03:49:00,
2013-08-26 23:04:00,71.6,70.0,29.98,SSW,193,0.0,1.0,93,0.00,,,0.05,weatherlink.com 1.10,2013-08-27 04:04:00,
2013-08-26 23:19:00,71.6,70.0,29.98,SSW,205,0.0,1.0,93,0.00,,,0.05,weatherlink.com 1.10,2013-08-27 04:19:00,
2013-08-26 23:34:00,71.7,70.0,29.98,South,179,0.0,1.0,93,0.00,,,0.05,weatherlink.com 1.10,2013-08-27 04:34:00,
2013-08-26 23:49:00,71.7,70.0,29.98,SSW,198,0.0,1.0,94,0.00,,,0.05,weatherlink.com 1.10,2013-08-27 04:49:00,